Time;durP1;ratioP1;P1;durP2;ratioP2;P2;SDS_P1;SDS_P2;PMS_P1;PMS_P2;Temp;Humidity;BMP_temperature;BMP_pressure;BME280_temperature;BME280_humidity;BME280_pressure;Samples;Min_cycle;Max_cycle;Signal;HPM_P1;HPM_P2
2021/03/10 00:00:23;;;;;;;25.97;14.43;;;;;;;7.06;56.51;94269.25;5014727;28;20169;-67
2021/03/10 00:02:48;;;;;;;26.93;14.40;;;;;;;7.02;56.15;94278.25;5014615;28;20172;-68
2021/03/10 00:05:14;;;;;;;29.13;14.27;;;;;;;6.75;56.85;94247.91;5014811;28;20165;-67
2021/03/10 00:07:40;;;;;;;26.43;13.13;;;;;;;7.07;56.30;94267.38;5013369;28;20252;-68
2021/03/10 00:10:07;;;;;;;29.83;12.43;;;;;;;6.93;56.62;94259.78;5014574;28;20577;-68
2021/03/10 00:12:32;;;;;;;25.70;13.40;;;;;;;6.86;56.35;94260.38;5014369;28;20177;-68
2021/03/10 00:14:58;;;;;;;23.40;12.43;;;;;;;6.84;57.16;94259.91;5014641;28;20498;-67
2021/03/10 00:17:23;;;;;;;24.27;13.47;;;;;;;6.99;56.75;94261.09;5014295;28;20200;-67
2021/03/10 00:19:49;;;;;;;23.43;12.27;;;;;;;7.06;56.47;94261.28;5012927;28;20200;-67
2021/03/10 00:22:14;;;;;;;25.67;11.73;;;;;;;7.15;56.62;94259.28;5014353;28;20282;-67
2021/03/10 00:24:40;;;;;;;22.07;12.03;;;;;;;7.11;56.28;94252.31;5014053;28;20207;-67
2021/03/10 00:27:06;;;;;;;25.20;13.77;;;;;;;7.00;57.31;94238.75;5014304;28;20196;-67
2021/03/10 00:29:31;;;;;;;19.57;12.30;;;;;;;6.73;58.76;94237.63;5013952;28;20177;-67
2021/03/10 00:31:57;;;;;;;22.33;13.00;;;;;;;6.82;58.20;94229.53;5014423;28;20169;-67
2021/03/10 00:34:22;;;;;;;26.90;13.13;;;;;;;6.97;57.99;94218.22;5014037;28;20212;-67
2021/03/10 00:36:48;;;;;;;20.53;12.93;;;;;;;6.77;58.02;94216.50;5014174;28;20704;-68
2021/03/10 00:39:14;;;;;;;21.10;13.33;;;;;;;6.80;58.68;94207.88;5013913;28;20639;-68
2021/03/10 00:41:39;;;;;;;28.03;12.23;;;;;;;6.85;58.98;94224.34;5013937;28;20495;-68
2021/03/10 00:44:05;;;;;;;22.63;13.60;;;;;;;6.70;58.78;94221.63;5013762;28;20208;-68
2021/03/10 00:46:30;;;;;;;28.50;13.83;;;;;;;6.70;59.38;94211.78;5014035;28;20196;-68
2021/03/10 00:48:56;;;;;;;26.90;15.07;;;;;;;6.71;59.54;94212.53;5014097;28;20173;-68
2021/03/10 00:51:21;;;;;;;29.77;15.90;;;;;;;6.79;59.43;94215.06;5013609;28;20246;-69
2021/03/10 00:53:47;;;;;;;31.80;16.23;;;;;;;6.87;58.57;94213.38;5013690;28;20227;-71
2021/03/10 00:56:12;;;;;;;30.10;15.40;;;;;;;6.97;59.06;94204.94;5013501;28;20193;-68
2021/03/10 00:58:38;;;;;;;25.47;14.90;;;;;;;6.87;58.90;94203.53;5013781;28;20555;-67
2021/03/10 01:01:03;;;;;;;27.47;16.50;;;;;;;6.84;59.93;94198.88;5013087;28;20687;-72
2021/03/10 01:03:29;;;;;;;29.00;16.40;;;;;;;6.77;59.82;94201.34;5013734;28;20256;-68
2021/03/10 01:05:54;;;;;;;28.43;16.47;;;;;;;6.75;59.30;94198.28;5013486;28;20589;-72
2021/03/10 01:08:20;;;;;;;30.80;16.23;;;;;;;6.77;59.82;94197.94;5013585;28;20180;-68
2021/03/10 01:10:47;;;;;;;30.50;17.03;;;;;;;6.85;59.85;94194.38;5013435;28;20235;-67
2021/03/10 01:13:13;;;;;;;28.53;16.07;;;;;;;6.65;60.34;94196.09;5013206;28;20177;-68
2021/03/10 01:15:38;;;;;;;27.83;15.27;;;;;;;6.66;60.72;94183.59;5013442;28;20797;-68
2021/03/10 01:18:03;;;;;;;28.80;16.90;;;;;;;6.63;60.83;94183.16;5013174;28;20165;-68
2021/03/10 01:20:29;;;;;;;31.23;18.83;;;;;;;6.28;61.81;94176.81;5013409;28;20180;-68
2021/03/10 01:22:54;;;;;;;32.50;18.17;;;;;;;6.52;62.58;94191.94;5013142;28;20213;-70
2021/03/10 01:25:20;;;;;;;43.53;19.30;;;;;;;6.55;62.28;94183.28;5013360;28;20177;-67
2021/03/10 01:27:45;;;;;;;36.57;18.07;;;;;;;6.60;62.08;94188.34;5012887;28;20680;-68
2021/03/10 01:30:12;;;;;;;32.80;16.53;;;;;;;6.32;62.88;94181.13;5013121;28;20180;-68
2021/03/10 01:32:38;;;;;;;35.30;19.40;;;;;;;6.40;62.95;94176.03;5013073;28;20720;-67
2021/03/10 01:35:04;;;;;;;32.83;17.37;;;;;;;6.52;62.89;94186.63;5013111;28;20423;-67
2021/03/10 01:37:30;;;;;;;32.37;18.17;;;;;;;6.64;62.29;94181.28;5011946;28;20268;-67
2021/03/10 01:39:56;;;;;;;32.17;18.47;;;;;;;6.62;62.96;94168.38;5012804;28;20428;-68
2021/03/10 01:42:22;;;;;;;34.93;18.93;;;;;;;6.40;65.02;94168.88;5011687;28;20205;-67
2021/03/10 01:44:47;;;;;;;37.80;18.70;;;;;;;6.59;63.42;94163.72;5012691;28;20717;-68
2021/03/10 01:47:13;;;;;;;34.37;17.40;;;;;;;6.58;63.08;94172.78;5012979;28;20458;-68
2021/03/10 01:49:39;;;;;;;40.50;18.53;;;;;;;6.54;63.44;94157.88;5011011;28;20199;-67
2021/03/10 01:52:04;;;;;;;36.03;18.63;;;;;;;6.48;63.84;94162.66;4994878;28;20256;-68
2021/03/10 01:54:30;;;;;;;37.17;19.90;;;;;;;6.45;63.95;94162.53;5012479;28;20471;-67
2021/03/10 01:56:55;;;;;;;37.77;18.87;;;;;;;6.43;64.13;94149.63;4994588;28;20738;-68
2021/03/10 01:59:22;;;;;;;40.57;20.57;;;;;;;6.43;64.37;94146.97;5012141;28;20169;-67
2021/03/10 02:01:47;;;;;;;31.00;17.77;;;;;;;6.35;64.30;94140.69;5011464;28;20215;-67
2021/03/10 02:04:13;;;;;;;32.90;17.70;;;;;;;6.35;64.72;94142.59;5012565;28;20424;-67
2021/03/10 02:06:38;;;;;;;36.70;18.40;;;;;;;6.31;64.23;94141.69;5012321;28;20540;-68
2021/03/10 02:09:30;;;;;;;39.80;20.27;;;;;;;6.09;65.14;94127.81;5012531;28;20185;-68
2021/03/10 02:12:08;;;;;;;31.90;18.23;;;;;;;6.06;65.26;94123.22;5010079;28;20228;-68
2021/03/10 02:14:39;;;;;;;33.43;17.50;;;;;;;5.99;66.40;94125.63;4994889;28;20974;-67
2021/03/10 02:17:10;;;;;;;35.97;19.63;;;;;;;6.16;66.03;94121.19;5011222;28;20427;-68
2021/03/10 02:20:01;;;;;;;32.70;18.57;;;;;;;6.21;66.05;94115.66;4994733;28;20570;-68
2021/03/10 02:22:45;;;;;;;31.83;18.17;;;;;;;6.18;65.89;94124.28;5010950;28;20468;-67
2021/03/10 02:25:14;;;;;;;32.50;18.77;;;;;;;6.07;65.83;94113.38;5012098;28;20419;-67
2021/03/10 02:27:53;;;;;;;40.80;19.42;;;;;;;6.09;66.27;94119.88;5012170;28;20417;-68
2021/03/10 02:30:20;;;;;;;36.88;19.65;;;;;;;6.09;66.39;94100.56;4995411;28;20722;-68
2021/03/10 02:32:56;;;;;;;37.88;19.92;;;;;;;6.07;65.95;94108.84;5010924;28;20558;-68
2021/03/10 02:35:22;;;;;;;36.93;19.20;;;;;;;5.95;66.59;94097.47;5010897;28;20195;-68
2021/03/10 02:37:50;;;;;;;42.57;20.77;;;;;;;5.96;67.05;94104.34;4994703;28;20481;-68
2021/03/10 02:40:16;;;;;;;37.22;18.52;;;;;;;5.72;67.09;94100.56;5010663;28;20280;-69
2021/03/10 02:42:41;;;;;;;36.67;20.37;;;;;;;5.60;68.00;94092.63;4994546;28;20205;-67
2021/03/10 02:45:08;;;;;;;39.20;19.67;;;;;;;5.52;68.27;94096.19;5010530;28;20199;-67
2021/03/10 02:47:33;;;;;;;33.53;19.60;;;;;;;5.45;68.09;94096.75;5011852;28;20179;-68
2021/03/10 02:49:59;;;;;;;38.23;20.43;;;;;;;5.47;68.88;94089.22;5010403;28;20613;-68
2021/03/10 02:52:25;;;;;;;35.27;18.03;;;;;;;5.52;68.80;94086.38;5010533;28;20247;-68
2021/03/10 02:54:51;;;;;;;46.13;20.63;;;;;;;5.63;68.69;94088.56;5010493;28;20674;-69
2021/03/10 02:57:16;;;;;;;40.10;21.10;;;;;;;5.63;68.94;94083.28;5010644;28;20180;-71
2021/03/10 02:59:44;;;;;;;36.77;20.57;;;;;;;5.45;68.71;94088.03;4994031;28;20169;-70
2021/03/10 03:02:10;;;;;;;36.60;20.02;;;;;;;5.36;70.92;94074.13;4993851;28;20271;-67
2021/03/10 03:04:36;;;;;;;36.13;20.27;;;;;;;5.56;70.52;94081.97;5011507;28;20169;-68
2021/03/10 03:07:01;;;;;;;35.57;19.33;;;;;;;5.54;68.84;94086.78;5011638;28;20169;-68
2021/03/10 03:09:27;;;;;;;37.20;19.30;;;;;;;5.14;70.58;94085.91;5011653;28;20588;-67
2021/03/10 03:11:52;;;;;;;40.30;20.03;;;;;;;5.28;71.09;94081.84;4993730;28;20185;-68
2021/03/10 03:14:18;;;;;;;40.43;21.30;;;;;;;5.20;72.19;94081.94;5011709;28;20169;-67
2021/03/10 03:16:43;;;;;;;47.03;21.13;;;;;;;5.48;71.28;94079.41;5011002;28;20212;-70
2021/03/10 03:19:09;;;;;;;39.57;21.13;;;;;;;5.69;69.49;94076.63;5011000;28;20177;-68
2021/03/10 03:21:34;;;;;;;40.37;20.47;;;;;;;5.78;69.37;94083.38;5011358;28;20204;-68
2021/03/10 03:24:00;;;;;;;40.93;20.50;;;;;;;5.70;70.83;94084.25;4996721;28;20690;-68
2021/03/10 03:26:26;;;;;;;40.23;19.53;;;;;;;5.65;70.69;94081.06;5014181;28;20223;-68
2021/03/10 03:28:51;;;;;;;37.60;19.03;;;;;;;5.71;69.91;94085.00;5014229;28;20158;-68
2021/03/10 03:31:17;;;;;;;38.17;20.27;;;;;;;5.77;70.47;94081.81;5014260;28;20718;-68
2021/03/10 03:33:42;;;;;;;41.70;19.30;;;;;;;5.71;70.91;94088.44;5014900;28;20172;-68
2021/03/10 03:36:08;;;;;;;42.30;19.30;;;;;;;5.59;72.10;94083.16;5014148;28;20169;-68
2021/03/10 03:38:34;;;;;;;36.07;19.80;;;;;;;5.80;69.80;94072.44;5015150;28;20165;-68
2021/03/10 03:40:59;;;;;;;38.37;18.83;;;;;;;5.60;70.30;94081.28;5015141;28;20192;-68
2021/03/10 03:43:25;;;;;;;39.80;19.57;;;;;;;5.58;71.31;94071.78;5013792;28;20173;-71
2021/03/10 03:45:51;;;;;;;38.90;20.70;;;;;;;5.64;71.00;94079.50;5015127;28;20599;-67
2021/03/10 03:48:18;;;;;;;35.17;17.80;;;;;;;5.84;70.45;94078.63;5013595;28;20427;-68
2021/03/10 03:50:44;;;;;;;39.00;19.90;;;;;;;5.82;70.84;94072.84;5013401;28;20664;-68
2021/03/10 03:53:09;;;;;;;41.90;19.73;;;;;;;5.82;70.81;94078.16;5014530;28;20481;-68
2021/03/10 03:55:35;;;;;;;38.10;18.47;;;;;;;5.73;70.79;94075.66;5013852;28;20183;-68
2021/03/10 03:58:01;;;;;;;39.27;18.93;;;;;;;5.77;71.14;94078.38;5014911;28;20327;-68
2021/03/10 04:00:27;;;;;;;34.63;18.17;;;;;;;5.60;71.19;94075.97;5013401;28;20180;-67
2021/03/10 04:02:53;;;;;;;33.88;18.10;;;;;;;5.63;71.28;94080.63;5014765;28;20288;-66
2021/03/10 04:05:19;;;;;;;37.13;19.00;;;;;;;5.36;72.21;94072.25;5014478;28;20185;-70
2021/03/10 04:07:54;;;;;;;35.53;18.03;;;;;;;5.62;71.90;94077.22;5014721;28;20216;-66
2021/03/10 04:10:25;;;;;;;34.70;16.87;;;;;;;5.68;70.93;94067.16;5014479;28;20442;-66
2021/03/10 04:12:50;;;;;;;29.10;16.70;;;;;;;5.51;71.23;94074.22;5014648;28;20443;-69
2021/03/10 04:15:16;;;;;;;27.10;15.43;;;;;;;5.53;71.04;94072.00;5014854;28;20264;-66
2021/03/10 04:17:41;;;;;;;31.63;15.80;;;;;;;5.84;70.26;94068.78;5014395;28;20557;-68
2021/03/10 04:20:17;;;;;;;26.93;14.10;;;;;;;5.58;71.62;94073.66;5014268;28;20264;-66
2021/03/10 04:22:43;;;;;;;31.88;15.55;;;;;;;5.48;71.34;94048.41;5014533;28;20204;-66
2021/03/10 04:25:09;;;;;;;26.30;14.33;;;;;;;5.65;70.13;94055.34;5014251;28;20236;-69
2021/03/10 04:27:34;;;;;;;28.93;13.93;;;;;;;5.84;68.88;94047.59;5014565;28;20180;-69
2021/03/10 04:30:00;;;;;;;29.47;15.00;;;;;;;5.71;70.25;94047.94;5014112;28;20547;-66
2021/03/10 04:32:25;;;;;;;32.80;15.47;;;;;;;5.56;70.96;94057.34;5014211;28;20181;-66
2021/03/10 04:34:51;;;;;;;31.30;15.70;;;;;;;5.73;69.83;94049.16;5013548;28;20161;-69
2021/03/10 04:37:16;;;;;;;27.73;13.73;;;;;;;5.69;69.14;94052.81;5014176;28;20568;-66
2021/03/10 04:39:42;;;;;;;29.67;15.80;;;;;;;5.67;70.58;94050.50;5014187;28;20169;-67
2021/03/10 04:42:08;;;;;;;31.33;15.83;;;;;;;5.63;71.06;94043.53;5013866;28;20271;-66
2021/03/10 04:44:33;;;;;;;33.17;15.48;;;;;;;5.41;71.99;94034.97;5013957;28;20188;-69
2021/03/10 04:46:59;;;;;;;31.80;16.77;;;;;;;5.30;73.30;94049.75;5013804;28;20177;-65
2021/03/10 04:49:24;;;;;;;37.10;18.70;;;;;;;5.36;73.05;94039.72;5013801;28;20173;-65
2021/03/10 04:51:50;;;;;;;39.10;17.57;;;;;;;5.24;72.87;94051.84;5013634;28;20221;-66
2021/03/10 04:54:15;;;;;;;34.43;18.07;;;;;;;5.12;73.75;94048.44;5013790;28;20185;-67
2021/03/10 04:56:41;;;;;;;34.27;19.07;;;;;;;5.29;73.80;94053.50;5013750;28;20327;-68
2021/03/10 04:59:06;;;;;;;33.37;16.97;;;;;;;5.42;72.41;94044.44;5013595;28;20169;-68
2021/03/10 05:01:32;;;;;;;37.20;17.93;;;;;;;5.24;73.46;94046.56;5013712;28;20213;-66
2021/03/10 05:03:57;;;;;;;35.40;18.37;;;;;;;5.60;71.71;94049.50;5013403;28;20173;-68
2021/03/10 05:06:23;;;;;;;30.10;16.33;;;;;;;5.75;70.29;94046.16;5013782;28;20231;-67
2021/03/10 05:08:48;;;;;;;30.47;16.23;;;;;;;5.66;70.54;94037.56;5013447;28;20654;-69
2021/03/10 05:11:14;;;;;;;35.83;18.10;;;;;;;5.65;70.41;94044.75;5013675;28;20173;-68
2021/03/10 05:13:39;;;;;;;33.83;16.43;;;;;;;5.75;70.42;94044.28;5013242;28;20251;-65
2021/03/10 05:16:05;;;;;;;35.40;16.77;;;;;;;5.83;69.95;94043.38;5013436;28;20173;-67
2021/03/10 05:18:30;;;;;;;36.30;17.03;;;;;;;5.82;68.81;94049.00;5013145;28;20622;-66
2021/03/10 05:20:56;;;;;;;33.20;18.47;;;;;;;5.82;69.25;94030.47;5013206;28;20197;-68
2021/03/10 05:23:21;;;;;;;30.53;16.47;;;;;;;5.64;69.91;94051.16;5013322;28;20656;-66
2021/03/10 05:25:47;;;;;;;33.67;18.37;;;;;;;5.86;69.25;94041.19;5013047;28;20231;-69
2021/03/10 05:28:12;;;;;;;30.43;16.60;;;;;;;5.82;70.62;94041.06;5013317;28;20180;-67
2021/03/10 05:30:38;;;;;;;34.43;16.10;;;;;;;5.82;70.25;94044.47;5012936;28;20181;-67
2021/03/10 05:33:03;;;;;;;31.43;17.60;;;;;;;5.92;69.98;94037.97;5013151;28;20636;-67
2021/03/10 05:35:29;;;;;;;33.50;17.43;;;;;;;5.80;70.82;94033.47;5012754;28;20188;-67
2021/03/10 05:37:54;;;;;;;31.73;16.60;;;;;;;5.74;71.39;94039.34;5013104;28;20181;-69
2021/03/10 05:40:20;;;;;;;33.33;17.77;;;;;;;5.53;72.11;94039.47;5012623;28;20172;-68
2021/03/10 05:42:45;;;;;;;33.80;16.97;;;;;;;5.32;72.14;94026.34;5011611;28;20262;-65
2021/03/10 05:45:11;;;;;;;34.03;16.73;;;;;;;5.44;72.96;94028.22;5011546;28;20204;-69
2021/03/10 05:47:37;;;;;;;31.63;16.13;;;;;;;5.48;71.59;94029.09;5011592;28;20173;-70
2021/03/10 05:50:04;;;;;;;34.10;15.87;;;;;;;5.49;71.09;94028.00;5012796;28;20423;-66
2021/03/10 05:52:29;;;;;;;28.00;14.68;;;;;;;5.40;71.17;94033.41;5012291;28;20227;-67
2021/03/10 05:54:55;;;;;;;25.80;14.67;;;;;;;5.63;70.68;94038.25;5011549;28;20177;-70
2021/03/10 05:57:20;;;;;;;26.93;14.30;;;;;;;5.68;70.70;94032.72;5010864;28;20177;-68
2021/03/10 05:59:46;;;;;;;25.03;12.93;;;;;;;5.71;69.73;94040.00;5012372;28;20169;-68
2021/03/10 06:02:11;;;;;;;22.00;12.20;;;;;;;5.58;68.88;94036.59;5011816;28;20211;-66
2021/03/10 06:04:40;;;;;;;24.60;13.43;;;;;;;5.55;69.91;94031.94;5011209;28;20224;-66
2021/03/10 06:07:18;;;;;;;30.13;13.68;;;;;;;5.72;70.05;94036.22;5011981;28;20169;-66
2021/03/10 06:09:53;;;;;;;28.80;15.02;;;;;;;5.18;72.20;94033.88;5010829;28;20193;-68
2021/03/10 06:12:18;;;;;;;24.15;13.48;;;;;;;5.14;72.41;94035.63;5010508;28;20184;-65
2021/03/10 06:14:44;;;;;;;25.73;14.83;;;;;;;5.10;72.75;94035.50;4993998;28;20185;-67
2021/03/10 06:17:10;;;;;;;29.33;14.53;;;;;;;5.12;72.84;94033.31;5012124;28;20189;-67
2021/03/10 06:19:42;;;;;;;27.92;15.60;;;;;;;5.25;72.77;94036.72;5012090;28;20645;-69
2021/03/10 06:22:09;;;;;;;26.50;15.07;;;;;;;5.25;72.46;94042.78;5011957;28;20215;-69
2021/03/10 06:24:35;;;;;;;28.15;14.63;;;;;;;5.29;71.75;94032.31;5011150;28;20207;-69
2021/03/10 06:27:00;;;;;;;28.60;13.93;;;;;;;5.54;71.06;94028.53;5012230;28;20177;-68
2021/03/10 06:29:26;;;;;;;28.80;15.00;;;;;;;5.49;71.89;94018.16;5011925;28;20675;-70
2021/03/10 06:32:06;;;;;;;27.13;14.50;;;;;;;5.50;71.82;94032.97;5010935;28;20231;-69
2021/03/10 06:34:44;;;;;;;26.60;14.30;;;;;;;5.43;72.22;94026.69;5011897;28;20169;-70
2021/03/10 06:37:23;;;;;;;31.23;14.40;;;;;;;5.40;72.88;94032.66;5011860;28;20883;-69
2021/03/10 06:39:48;;;;;;;29.05;15.55;;;;;;;5.50;72.10;94027.69;5010939;28;20412;-70
2021/03/10 06:42:14;;;;;;;28.70;15.13;;;;;;;5.30;72.55;94029.34;5011795;28;20827;-68
2021/03/10 06:44:52;;;;;;;29.50;15.07;;;;;;;5.37;72.42;94031.44;5011877;28;20177;-70
2021/03/10 06:47:18;;;;;;;28.73;15.20;;;;;;;5.50;72.70;94040.13;5011797;28;20527;-70
2021/03/10 06:49:51;;;;;;;27.83;13.27;;;;;;;5.68;71.19;94040.66;5010881;28;20181;-69
2021/03/10 06:52:17;;;;;;;26.00;13.63;;;;;;;5.43;72.39;94024.78;5011502;28;20539;-69
2021/03/10 06:54:59;;;;;;;28.73;14.73;;;;;;;5.35;72.81;94030.22;5011853;28;20173;-69
2021/03/10 06:57:24;;;;;;;28.17;14.50;;;;;;;5.30;72.68;94034.63;5011146;28;20208;-70
2021/03/10 06:59:56;;;;;;;26.80;13.93;;;;;;;5.31;72.79;94052.06;5010764;28;20184;-69
2021/03/10 07:02:23;;;;;;;26.47;14.13;;;;;;;5.43;71.82;94045.97;5010183;28;20591;-69
2021/03/10 07:04:50;;;;;;;27.08;15.55;;;;;;;5.46;72.50;94042.69;5011837;28;20517;-69
2021/03/10 07:07:16;;;;;;;34.50;15.93;;;;;;;5.78;71.08;94050.78;5011508;28;20173;-67
2021/03/10 07:09:42;;;;;;;35.33;15.57;;;;;;;5.36;73.73;94052.94;5010636;28;20840;-69
2021/03/10 07:12:08;;;;;;;30.37;16.67;;;;;;;5.49;71.67;94059.75;5011610;28;20181;-70
2021/03/10 07:14:35;;;;;;;31.97;17.40;;;;;;;5.31;72.83;94065.28;5010224;28;20173;-70
2021/03/10 07:17:00;;;;;;;30.30;15.98;;;;;;;5.40;71.94;94056.47;5011598;28;20448;-70
2021/03/10 07:19:25;;;;;;;32.30;17.67;;;;;;;5.65;71.48;94054.56;5010178;28;20204;-67
2021/03/10 07:21:54;;;;;;;34.77;17.60;;;;;;;5.73;71.69;94062.41;5011535;28;20202;-66
2021/03/10 07:24:23;;;;;;;36.22;18.45;;;;;;;5.83;71.27;94063.81;4993912;28;20184;-68
2021/03/10 07:26:49;;;;;;;40.88;18.73;;;;;;;5.73;72.51;94062.41;5010206;28;20177;-68
2021/03/10 07:29:14;;;;;;;36.13;18.80;;;;;;;5.77;71.23;94062.50;5010066;28;20165;-69
2021/03/10 07:31:40;;;;;;;33.53;17.93;;;;;;;5.76;70.60;94071.53;5010518;28;20597;-64
2021/03/10 07:34:05;;;;;;;35.87;18.50;;;;;;;5.50;71.34;94071.91;5010080;28;20184;-67
2021/03/10 07:36:35;;;;;;;36.03;19.13;;;;;;;5.69;70.81;94069.47;5010333;28;20223;-74
2021/03/10 07:39:00;;;;;;;39.15;19.52;;;;;;;5.64;70.63;94047.72;5010314;28;20173;-73
2021/03/10 07:41:37;;;;;;;42.93;19.80;;;;;;;5.76;70.26;94056.41;5010999;28;20212;-69
2021/03/10 07:44:13;;;;;;;36.13;18.73;;;;;;;5.41;71.29;94058.78;5011371;28;20616;-70
2021/03/10 07:46:39;;;;;;;40.63;21.08;;;;;;;5.51;71.99;94061.00;5010352;28;20419;-69
2021/03/10 07:49:24;;;;;;;42.07;18.57;;;;;;;5.13;73.46;94065.84;5011232;28;20239;-70
2021/03/10 07:51:51;;;;;;;39.22;20.92;;;;;;;5.13;73.03;94071.13;5010771;28;20529;-74
2021/03/10 07:54:23;;;;;;;40.80;19.45;;;;;;;5.25;72.26;94057.91;5010907;28;20173;-71
2021/03/10 07:56:49;;;;;;;39.38;20.40;;;;;;;5.02;74.25;94062.84;5011319;28;20627;-74
2021/03/10 07:59:19;;;;;;;43.17;21.90;;;;;;;5.01;73.95;94050.72;5011050;28;20260;-73
2021/03/10 08:01:45;;;;;;;43.28;21.02;;;;;;;5.00;74.38;94051.84;5009978;28;20216;-74
2021/03/10 08:04:15;;;;;;;36.60;20.00;;;;;;;5.18;73.41;94053.16;5009839;28;20208;-69
2021/03/10 08:06:52;;;;;;;35.00;19.58;;;;;;;5.28;72.53;94054.59;4993640;28;20953;-66
2021/03/10 08:09:18;;;;;;;40.97;20.40;;;;;;;5.30;72.35;94055.03;5010978;28;20177;-71
2021/03/10 08:11:45;;;;;;;33.80;18.57;;;;;;;5.30;72.13;94062.97;5014651;28;20419;-70
2021/03/10 08:14:15;;;;;;;41.70;19.70;;;;;;;5.46;71.63;94057.78;4996858;28;20431;-67
2021/03/10 08:16:42;;;;;;;34.43;18.57;;;;;;;5.37;72.72;94057.91;5014181;28;20413;-69
2021/03/10 08:19:08;;;;;;;37.07;19.83;;;;;;;5.40;72.48;94053.84;5012936;28;20959;-74
2021/03/10 08:21:33;;;;;;;36.97;20.33;;;;;;;5.08;74.15;94045.66;5012647;28;20502;-70
2021/03/10 08:24:00;;;;;;;39.80;19.13;;;;;;;5.27;73.43;94050.41;5013267;28;20177;-74
2021/03/10 08:26:25;;;;;;;36.30;19.08;;;;;;;5.26;73.60;94048.84;5012300;28;20597;-74
2021/03/10 08:28:51;;;;;;;34.53;17.47;;;;;;;5.55;71.97;94030.06;5013122;28;20242;-75
2021/03/10 08:31:16;;;;;;;38.53;20.73;;;;;;;5.39;73.36;94034.53;5014041;28;20181;-73
2021/03/10 08:33:49;;;;;;;38.03;18.60;;;;;;;5.28;73.39;94033.44;5014223;28;20223;-75
2021/03/10 08:36:15;;;;;;;33.40;18.05;;;;;;;5.39;72.92;94039.81;5012559;28;20262;-68
2021/03/10 08:38:41;;;;;;;35.33;18.83;;;;;;;5.51;71.79;94039.03;5014058;28;20273;-73
2021/03/10 08:41:08;;;;;;;37.73;19.13;;;;;;;5.30;72.93;94033.88;5013658;28;20200;-74
2021/03/10 08:43:33;;;;;;;37.58;19.25;;;;;;;5.58;71.91;94013.53;5012800;28;20173;-71
2021/03/10 08:45:59;;;;;;;39.80;19.43;;;;;;;5.31;73.98;94036.16;5013695;28;20181;-69
2021/03/10 08:48:30;;;;;;;31.03;17.73;;;;;;;5.25;74.21;94024.25;5013912;28;20239;-74
2021/03/10 08:50:58;;;;;;;42.97;21.73;;;;;;;5.22;74.73;94040.06;5013787;28;20185;-74
2021/03/10 08:53:24;;;;;;;35.03;19.33;;;;;;;5.51;73.57;94037.16;5012331;28;20221;-69
2021/03/10 08:55:49;;;;;;;32.30;18.27;;;;;;;5.25;74.12;94044.66;5013940;28;20384;-74
2021/03/10 08:58:16;;;;;;;34.47;18.53;;;;;;;5.14;74.42;94032.97;5013616;28;20178;-69
2021/03/10 09:00:41;;;;;;;35.47;19.52;;;;;;;5.40;73.75;94038.72;5013718;28;20181;-68
2021/03/10 09:03:14;;;;;;;35.70;19.53;;;;;;;5.47;73.22;94054.81;5013602;28;20192;-71
2021/03/10 09:05:43;;;;;;;39.67;19.27;;;;;;;5.60;72.61;94044.97;5013562;28;20302;-74
2021/03/10 09:08:08;;;;;;;38.97;20.63;;;;;;;5.45;74.24;94043.78;5012225;28;20636;-69
2021/03/10 09:10:34;;;;;;;40.17;21.07;;;;;;;5.13;75.17;94050.72;5013599;28;20191;-68
2021/03/10 09:13:00;;;;;;;34.87;19.97;;;;;;;5.27;74.80;94042.44;5013372;28;20180;-70
2021/03/10 09:15:26;;;;;;;38.27;22.30;;;;;;;5.34;74.75;94041.94;5013552;28;20316;-71
2021/03/10 09:17:52;;;;;;;39.92;21.70;;;;;;;5.71;73.29;94048.69;5013296;28;20165;-70
2021/03/10 09:20:24;;;;;;;38.97;20.83;;;;;;;5.68;72.73;94045.97;5013267;28;20182;-71
2021/03/10 09:22:50;;;;;;;39.73;20.40;;;;;;;5.74;72.66;94052.56;5012933;28;20216;-74
2021/03/10 09:25:16;;;;;;;42.53;20.92;;;;;;;5.21;74.59;94043.78;5013472;28;20439;-69
2021/03/10 09:27:42;;;;;;;34.17;19.00;;;;;;;5.45;73.51;94049.09;5013289;28;20591;-72
2021/03/10 09:30:13;;;;;;;33.03;17.70;;;;;;;5.35;73.45;94051.41;5012781;28;20583;-68
2021/03/10 09:32:44;;;;;;;35.47;18.10;;;;;;;5.21;75.12;94065.72;5013128;28;20580;-68
2021/03/10 09:35:36;;;;;;;32.65;17.65;;;;;;;5.43;74.41;94064.50;5012792;28;20188;-69
2021/03/10 09:38:06;;;;;;;35.10;17.47;;;;;;;5.57;73.08;94054.38;5009834;28;20189;-69
2021/03/10 09:40:46;;;;;;;32.63;17.67;;;;;;;5.63;73.75;94067.38;5011814;28;20416;-68
2021/03/10 09:43:15;;;;;;;36.00;19.13;;;;;;;5.64;73.58;94055.69;5012603;28;20427;-68
2021/03/10 09:45:40;;;;;;;30.10;17.65;;;;;;;5.40;75.10;94054.59;5011724;28;20183;-70
2021/03/10 09:48:07;;;;;;;33.23;16.40;;;;;;;5.56;73.17;94050.19;5012685;28;20243;-68
2021/03/10 09:50:38;;;;;;;36.80;20.10;;;;;;;5.63;73.73;94054.13;5027646;28;20694;-72
2021/03/10 09:53:16;;;;;;;26.02;15.65;;;;;;;5.57;72.70;94051.72;5012385;28;20456;-69
2021/03/10 09:55:41;;;;;;;29.77;16.92;;;;;;;5.22;74.94;94058.59;5012786;28;20176;-68
2021/03/10 09:58:08;;;;;;;28.77;15.63;;;;;;;5.25;74.31;94049.97;5011003;28;20250;-70
2021/03/10 10:00:33;;;;;;;32.95;17.35;;;;;;;5.55;72.29;94051.25;5011297;28;20180;-68
2021/03/10 10:02:59;;;;;;;39.43;19.93;;;;;;;5.58;73.22;94042.66;5011090;28;20201;-70
2021/03/10 10:05:26;;;;;;;33.93;16.93;;;;;;;5.51;74.38;94045.09;5011664;28;20707;-72
2021/03/10 10:07:52;;;;;;;28.13;16.27;;;;;;;5.46;73.35;94034.75;5012469;28;20181;-68
2021/03/10 10:10:18;;;;;;;30.27;17.70;;;;;;;5.53;72.97;94039.47;5012264;28;20181;-71
2021/03/10 10:12:48;;;;;;;31.60;19.17;;;;;;;5.43;74.61;94040.69;5012114;28;21084;-70
2021/03/10 10:15:14;;;;;;;32.43;18.87;;;;;;;5.61;73.94;94037.78;5012146;28;20165;-69
2021/03/10 10:17:42;;;;;;;31.73;18.33;;;;;;;5.73;73.14;94054.47;5010951;28;20436;-71
2021/03/10 10:20:08;;;;;;;25.77;15.23;;;;;;;5.64;73.70;94045.09;5010859;28;20420;-68
2021/03/10 10:22:33;;;;;;;25.13;15.18;;;;;;;5.24;74.83;94048.44;5009398;28;20856;-70
2021/03/10 10:24:59;;;;;;;25.97;14.63;;;;;;;5.50;74.07;94051.50;5012155;28;20185;-70
2021/03/10 10:27:25;;;;;;;30.17;16.80;;;;;;;5.50;74.04;94054.16;5012129;28;20204;-68
2021/03/10 10:29:50;;;;;;;25.47;14.50;;;;;;;5.80;72.79;94052.00;5012078;28;20173;-69
2021/03/10 10:32:16;;;;;;;28.03;15.40;;;;;;;5.64;74.24;94059.09;5011842;28;20185;-73
2021/03/10 10:34:41;;;;;;;29.90;17.40;;;;;;;5.89;73.30;94056.38;5011956;28;20173;-71
2021/03/10 10:37:06;;;;;;;30.67;17.50;;;;;;;5.80;74.20;94052.00;5011724;28;20231;-73
2021/03/10 10:39:32;;;;;;;28.43;16.03;;;;;;;5.75;74.71;94056.75;5012053;28;20180;-74
2021/03/10 10:41:57;;;;;;;29.77;15.50;;;;;;;5.67;74.70;94053.16;5011633;28;20672;-71
2021/03/10 10:44:23;;;;;;;29.30;16.10;;;;;;;5.65;74.69;94052.69;5011909;28;20176;-73
2021/03/10 10:46:49;;;;;;;26.07;15.60;;;;;;;5.72;74.75;94052.88;5011781;28;20162;-72
2021/03/10 10:49:14;;;;;;;31.57;17.67;;;;;;;5.86;74.10;94052.53;5011936;28;20177;-69
2021/03/10 10:51:42;;;;;;;29.03;17.20;;;;;;;5.49;75.01;94051.81;5011590;28;20494;-69
2021/03/10 10:54:07;;;;;;;29.30;16.73;;;;;;;5.74;74.21;94052.56;5011790;28;20632;-68
2021/03/10 10:56:33;;;;;;;40.07;19.13;;;;;;;5.50;74.65;94037.47;5011478;28;20427;-66
2021/03/10 10:58:58;;;;;;;33.37;17.60;;;;;;;5.54;74.76;94049.72;5011588;28;20177;-70
2021/03/10 11:01:24;;;;;;;28.17;16.53;;;;;;;5.85;73.65;94045.72;5011771;28;20279;-74
2021/03/10 11:03:49;;;;;;;29.00;15.90;;;;;;;6.04;72.79;94055.72;5011603;28;20177;-68
2021/03/10 11:06:15;;;;;;;21.27;12.70;;;;;;;5.64;73.15;94042.44;5011692;28;20177;-69
2021/03/10 11:08:40;;;;;;;26.67;14.47;;;;;;;5.80;74.18;94048.59;5011480;28;20231;-68
2021/03/10 11:11:06;;;;;;;22.60;13.50;;;;;;;5.84;72.74;94052.88;5011559;28;20181;-69
2021/03/10 11:13:31;;;;;;;23.17;12.57;;;;;;;5.68;73.77;94052.03;5011070;28;20223;-69
2021/03/10 11:15:57;;;;;;;33.23;21.17;;;;;;;5.07;75.54;94054.69;5011557;28;20173;-68
2021/03/10 11:18:22;;;;;;;24.63;16.57;;;;;;;5.40;74.20;94062.53;5011064;28;20663;-71
2021/03/10 11:20:48;;;;;;;12.43;8.83;;;;;;;5.31;72.13;94065.28;5011351;28;20644;-67
2021/03/10 11:23:13;;;;;;;11.67;8.10;;;;;;;5.30;71.25;94060.34;5011019;28;20177;-69